sensor_id;sensor_type;location;lat;lon;timestamp;pressure;altitude;pressure_sealevel;temperature;humidity
28000;BME280;15328;50.860;10.562;2023-01-30T00:02:44;96568.75;;;-3.13;74.91
28000;BME280;15328;50.860;10.562;2023-01-30T00:07:45;96563.13;;;-3.18;76.08
28000;BME280;15328;50.860;10.562;2023-01-30T00:12:46;96554.34;;;-3.17;76.02
28000;BME280;15328;50.860;10.562;2023-01-30T00:17:46;96547.75;;;-2.91;76.38
28000;BME280;15328;50.860;10.562;2023-01-30T00:22:46;96539.69;;;-2.88;75.98
28000;BME280;15328;50.860;10.562;2023-01-30T00:27:47;96526.44;;;-2.56;76.51
28000;BME280;15328;50.860;10.562;2023-01-30T00:32:47;96508.63;;;-2.51;74.41
28000;BME280;15328;50.860;10.562;2023-01-30T00:37:47;96516.16;;;-2.67;73.80
28000;BME280;15328;50.860;10.562;2023-01-30T00:42:48;96518.63;;;-2.56;73.36
28000;BME280;15328;50.860;10.562;2023-01-30T00:48:07;96515.03;;;-2.74;75.13
28000;BME280;15328;50.860;10.562;2023-01-30T00:53:11;96478.34;;;-2.52;74.74
28000;BME280;15328;50.860;10.562;2023-01-30T00:58:12;96445.84;;;-2.47;73.40
28000;BME280;15328;50.860;10.562;2023-01-30T01:03:12;96442.66;;;-2.22;73.21
28000;BME280;15328;50.860;10.562;2023-01-30T01:08:13;96386.31;;;-2.13;72.68
28000;BME280;15328;50.860;10.562;2023-01-30T01:13:14;96413.47;;;-2.55;74.01
28000;BME280;15328;50.860;10.562;2023-01-30T01:18:14;96436.50;;;-2.31;74.21
28000;BME280;15328;50.860;10.562;2023-01-30T01:23:15;96377.16;;;-2.46;74.86
28000;BME280;15328;50.860;10.562;2023-01-30T01:28:15;96330.28;;;-2.66;76.42
28000;BME280;15328;50.860;10.562;2023-01-30T01:33:20;96339.97;;;-2.49;76.92
28000;BME280;15328;50.860;10.562;2023-01-30T01:38:21;96364.00;;;-1.98;74.89
28000;BME280;15328;50.860;10.562;2023-01-30T01:43:23;96369.34;;;-1.53;74.04
28000;BME280;15328;50.860;10.562;2023-01-30T01:48:25;96402.69;;;-1.47;76.25
28000;BME280;15328;50.860;10.562;2023-01-30T01:53:31;96393.22;;;-1.20;75.06
28000;BME280;15328;50.860;10.562;2023-01-30T01:58:42;96360.38;;;-0.78;74.30
28000;BME280;15328;50.860;10.562;2023-01-30T02:03:49;96356.75;;;-0.59;74.15
28000;BME280;15328;50.860;10.562;2023-01-30T02:08:56;96346.59;;;-0.44;73.06
28000;BME280;15328;50.860;10.562;2023-01-30T02:13:59;96354.94;;;-0.23;72.82
28000;BME280;15328;50.860;10.562;2023-01-30T02:19:00;96337.41;;;-0.05;72.84
28000;BME280;15328;50.860;10.562;2023-01-30T02:24:15;96322.44;;;-0.20;73.83
28000;BME280;15328;50.860;10.562;2023-01-30T02:35:04;96294.22;;;-0.09;75.50
28000;BME280;15328;50.860;10.562;2023-01-30T02:45:25;96275.63;;;0.28;73.44
28000;BME280;15328;50.860;10.562;2023-01-30T02:50:37;96246.75;;;0.12;73.29
28000;BME280;15328;50.860;10.562;2023-01-30T02:55:40;96254.59;;;0.12;74.01
28000;BME280;15328;50.860;10.562;2023-01-30T03:11:07;96282.09;;;-0.44;78.25
28000;BME280;15328;50.860;10.562;2023-01-30T03:16:22;96278.66;;;-0.44;79.37
28000;BME280;15328;50.860;10.562;2023-01-30T03:21:24;96245.50;;;-0.70;79.24
28000;BME280;15328;50.860;10.562;2023-01-30T03:26:28;96236.59;;;-1.03;81.97
28000;BME280;15328;50.860;10.562;2023-01-30T03:31:30;96213.75;;;-1.01;82.36
28000;BME280;15328;50.860;10.562;2023-01-30T03:36:30;96210.56;;;-0.69;83.56
28000;BME280;15328;50.860;10.562;2023-01-30T03:41:30;96190.13;;;-0.73;84.60
28000;BME280;15328;50.860;10.562;2023-01-30T03:46:31;96193.94;;;-0.85;84.87
28000;BME280;15328;50.860;10.562;2023-01-30T03:51:31;96204.66;;;-0.71;84.78
28000;BME280;15328;50.860;10.562;2023-01-30T03:56:31;96170.03;;;-0.73;85.12
28000;BME280;15328;50.860;10.562;2023-01-30T04:01:32;96201.22;;;-0.71;84.82
28000;BME280;15328;50.860;10.562;2023-01-30T04:06:32;96148.34;;;-0.91;84.33
28000;BME280;15328;50.860;10.562;2023-01-30T04:11:32;96162.28;;;-1.08;84.74
28000;BME280;15328;50.860;10.562;2023-01-30T04:16:33;96169.81;;;-1.05;86.35
28000;BME280;15328;50.860;10.562;2023-01-30T04:21:33;96115.34;;;-1.00;85.11
28000;BME280;15328;50.860;10.562;2023-01-30T04:26:33;96174.78;;;-0.94;84.80
28000;BME280;15328;50.860;10.562;2023-01-30T04:31:34;96193.22;;;-0.96;84.31
28000;BME280;15328;50.860;10.562;2023-01-30T04:36:34;96198.50;;;-0.62;82.67
28000;BME280;15328;50.860;10.562;2023-01-30T04:41:36;96137.69;;;-0.80;83.78
28000;BME280;15328;50.860;10.562;2023-01-30T04:46:36;96142.50;;;-0.59;84.00
28000;BME280;15328;50.860;10.562;2023-01-30T04:51:36;96157.00;;;-0.65;85.09
28000;BME280;15328;50.860;10.562;2023-01-30T04:56:40;96132.78;;;-0.49;84.80
28000;BME280;15328;50.860;10.562;2023-01-30T05:01:40;96162.53;;;-0.42;85.65
28000;BME280;15328;50.860;10.562;2023-01-30T05:06:41;96153.25;;;-0.28;84.69
28000;BME280;15328;50.860;10.562;2023-01-30T05:11:41;96123.09;;;-0.14;84.77
28000;BME280;15328;50.860;10.562;2023-01-30T05:16:41;96099.38;;;-0.21;85.47
28000;BME280;15328;50.860;10.562;2023-01-30T05:21:42;96088.63;;;-0.02;84.70
28000;BME280;15328;50.860;10.562;2023-01-30T05:26:42;96100.22;;;-0.12;86.89
28000;BME280;15328;50.860;10.562;2023-01-30T05:31:42;96096.94;;;-0.14;86.73
28000;BME280;15328;50.860;10.562;2023-01-30T05:36:43;96095.63;;;-0.18;87.53
28000;BME280;15328;50.860;10.562;2023-01-30T05:41:43;96090.91;;;-0.07;87.39
28000;BME280;15328;50.860;10.562;2023-01-30T05:46:43;96101.91;;;0.05;86.77
28000;BME280;15328;50.860;10.562;2023-01-30T05:51:43;96056.13;;;0.01;85.53
28000;BME280;15328;50.860;10.562;2023-01-30T05:56:47;96078.19;;;0.23;84.55
28000;BME280;15328;50.860;10.562;2023-01-30T06:01:48;96055.16;;;0.10;85.77
28000;BME280;15328;50.860;10.562;2023-01-30T06:06:49;96064.78;;;0.10;86.20
28000;BME280;15328;50.860;10.562;2023-01-30T06:11:49;96039.59;;;0.17;85.25
28000;BME280;15328;50.860;10.562;2023-01-30T06:16:51;96065.13;;;0.23;85.02
28000;BME280;15328;50.860;10.562;2023-01-30T06:21:51;96048.13;;;0.11;85.50
28000;BME280;15328;50.860;10.562;2023-01-30T06:26:52;96067.09;;;0.29;85.18
28000;BME280;15328;50.860;10.562;2023-01-30T06:31:52;96023.94;;;0.33;83.70
28000;BME280;15328;50.860;10.562;2023-01-30T06:36:52;96091.78;;;0.43;83.69
28000;BME280;15328;50.860;10.562;2023-01-30T06:41:52;96073.16;;;0.46;83.22
28000;BME280;15328;50.860;10.562;2023-01-30T06:46:53;96047.47;;;0.49;84.67
28000;BME280;15328;50.860;10.562;2023-01-30T06:51:53;96075.59;;;0.15;85.65
28000;BME280;15328;50.860;10.562;2023-01-30T06:56:53;96057.44;;;0.13;86.52
28000;BME280;15328;50.860;10.562;2023-01-30T07:01:54;96076.09;;;0.35;85.60
28000;BME280;15328;50.860;10.562;2023-01-30T07:06:54;96043.03;;;0.17;85.82
28000;BME280;15328;50.860;10.562;2023-01-30T07:11:54;96057.44;;;0.21;87.00
28000;BME280;15328;50.860;10.562;2023-01-30T07:16:55;96042.25;;;0.33;85.44
28000;BME280;15328;50.860;10.562;2023-01-30T07:21:55;96076.91;;;0.43;84.32
28000;BME280;15328;50.860;10.562;2023-01-30T07:26:55;96042.25;;;0.33;84.21
28000;BME280;15328;50.860;10.562;2023-01-30T07:31:56;96058.56;;;0.27;84.92
28000;BME280;15328;50.860;10.562;2023-01-30T07:36:56;96076.41;;;0.40;84.96
28000;BME280;15328;50.860;10.562;2023-01-30T07:41:59;96062.53;;;0.39;85.13
28000;BME280;15328;50.860;10.562;2023-01-30T07:46:59;96056.16;;;0.34;85.64
28000;BME280;15328;50.860;10.562;2023-01-30T07:52:00;96068.22;;;0.26;86.00
28000;BME280;15328;50.860;10.562;2023-01-30T07:57:00;96042.25;;;0.33;85.59
28000;BME280;15328;50.860;10.562;2023-01-30T08:02:00;96026.84;;;0.46;85.77
28000;BME280;15328;50.860;10.562;2023-01-30T08:07:01;96011.31;;;0.37;85.34
28000;BME280;15328;50.860;10.562;2023-01-30T08:12:01;96009.84;;;0.26;86.63
28000;BME280;15328;50.860;10.562;2023-01-30T08:17:01;96051.22;;;0.39;86.41
28000;BME280;15328;50.860;10.562;2023-01-30T08:22:02;96059.75;;;0.57;85.21
28000;BME280;15328;50.860;10.562;2023-01-30T08:27:02;96047.63;;;0.64;84.84
28000;BME280;15328;50.860;10.562;2023-01-30T08:32:03;96044.03;;;0.65;84.35
28000;BME280;15328;50.860;10.562;2023-01-30T08:37:03;96058.06;;;0.72;84.48
28000;BME280;15328;50.860;10.562;2023-01-30T08:42:04;96057.56;;;0.77;83.64
28000;BME280;15328;50.860;10.562;2023-01-30T08:47:04;96090.78;;;0.76;83.65
28000;BME280;15328;50.860;10.562;2023-01-30T08:52:04;96070.16;;;0.81;83.10
28000;BME280;15328;50.860;10.562;2023-01-30T08:57:05;96061.47;;;0.97;83.42
28000;BME280;15328;50.860;10.562;2023-01-30T09:02:08;96091.09;;;0.98;82.24
28000;BME280;15328;50.860;10.562;2023-01-30T09:07:09;96047.88;;;1.02;81.84
28000;BME280;15328;50.860;10.562;2023-01-30T09:12:10;96047.88;;;1.10;82.52
28000;BME280;15328;50.860;10.562;2023-01-30T09:17:10;96050.78;;;1.07;81.62
28000;BME280;15328;50.860;10.562;2023-01-30T09:22:10;96066.84;;;1.04;82.94
28000;BME280;15328;50.860;10.562;2023-01-30T09:27:10;96071.09;;;1.13;82.37
28000;BME280;15328;50.860;10.562;2023-01-30T09:32:11;96064.16;;;1.28;81.84
28000;BME280;15328;50.860;10.562;2023-01-30T09:37:11;96053.75;;;1.04;82.36
28000;BME280;15328;50.860;10.562;2023-01-30T09:42:39;96067.44;;;1.30;82.22
28000;BME280;15328;50.860;10.562;2023-01-30T09:48:52;96077.41;;;1.43;81.12
28000;BME280;15328;50.860;10.562;2023-01-30T09:53:41;96050.38;;;1.34;81.69
28000;BME280;15328;50.860;10.562;2023-01-30T09:59:01;96035.50;;;1.27;81.81
28000;BME280;15328;50.860;10.562;2023-01-30T10:04:12;96053.00;;;1.42;80.70
28000;BME280;15328;50.860;10.562;2023-01-30T10:09:30;96062.44;;;1.51;80.13
28000;BME280;15328;50.860;10.562;2023-01-30T10:25:28;96061.25;;;1.62;80.11
28000;BME280;15328;50.860;10.562;2023-01-30T10:30:32;96070.44;;;1.66;80.09
28000;BME280;15328;50.860;10.562;2023-01-30T10:35:35;96075.66;;;1.66;79.70
28000;BME280;15328;50.860;10.562;2023-01-30T10:40:41;96075.50;;;1.68;80.21
28000;BME280;15328;50.860;10.562;2023-01-30T10:51:02;96065.25;;;1.81;78.65
28000;BME280;15328;50.860;10.562;2023-01-30T10:56:14;96079.94;;;1.98;77.50
28000;BME280;15328;50.860;10.562;2023-01-30T11:01:28;96094.69;;;1.91;77.86
28000;BME280;15328;50.860;10.562;2023-01-30T11:06:32;96095.50;;;1.92;77.80
28000;BME280;15328;50.860;10.562;2023-01-30T11:11:47;96098.00;;;1.85;77.71
28000;BME280;15328;50.860;10.562;2023-01-30T11:16:55;96096.78;;;2.04;77.69
28000;BME280;15328;50.860;10.562;2023-01-30T11:21:59;96098.81;;;1.94;77.92
28000;BME280;15328;50.860;10.562;2023-01-30T11:27:20;96098.13;;;1.92;78.00
28000;BME280;15328;50.860;10.562;2023-01-30T11:32:26;96086.97;;;1.67;79.24
28000;BME280;15328;50.860;10.562;2023-01-30T11:37:31;96089.09;;;1.71;79.01
28000;BME280;15328;50.860;10.562;2023-01-30T11:42:32;96078.38;;;1.81;78.13
28000;BME280;15328;50.860;10.562;2023-01-30T11:47:32;96078.00;;;1.92;78.08
28000;BME280;15328;50.860;10.562;2023-01-30T11:52:35;96056.31;;;1.98;76.97
28000;BME280;15328;50.860;10.562;2023-01-30T11:57:46;96051.25;;;1.97;78.25
28000;BME280;15328;50.860;10.562;2023-01-30T12:02:51;96039.03;;;1.81;78.67
28000;BME280;15328;50.860;10.562;2023-01-30T12:07:52;96048.63;;;2.20;78.25
28000;BME280;15328;50.860;10.562;2023-01-30T12:12:58;96048.09;;;2.24;77.55
28000;BME280;15328;50.860;10.562;2023-01-30T12:18:29;96037.09;;;2.43;77.08
28000;BME280;15328;50.860;10.562;2023-01-30T12:23:45;96037.66;;;2.16;78.02
28000;BME280;15328;50.860;10.562;2023-01-30T12:34:03;96027.03;;;2.09;78.09
28000;BME280;15328;50.860;10.562;2023-01-30T13:00:27;96003.47;;;2.62;73.78
28000;BME280;15328;50.860;10.562;2023-01-30T13:05:38;96000.63;;;2.86;73.58
28000;BME280;15328;50.860;10.562;2023-01-30T13:11:10;96013.44;;;2.66;73.55
28000;BME280;15328;50.860;10.562;2023-01-30T13:16:30;96025.22;;;2.70;72.25
28000;BME280;15328;50.860;10.562;2023-01-30T13:21:58;96023.53;;;2.77;72.74
28000;BME280;15328;50.860;10.562;2023-01-30T13:27:04;96026.25;;;2.84;72.84
28000;BME280;15328;50.860;10.562;2023-01-30T13:32:26;96033.59;;;2.74;73.44
28000;BME280;15328;50.860;10.562;2023-01-30T13:37:30;96018.38;;;2.84;72.82
28000;BME280;15328;50.860;10.562;2023-01-30T13:42:58;96005.97;;;2.93;72.75
28000;BME280;15328;50.860;10.562;2023-01-30T13:53:47;96036.41;;;2.87;72.07
28000;BME280;15328;50.860;10.562;2023-01-30T14:10:29;96073.56;;;2.61;74.77
28000;BME280;15328;50.860;10.562;2023-01-30T14:20:19;96071.03;;;2.68;74.81
28000;BME280;15328;50.860;10.562;2023-01-30T14:25:42;96059.53;;;2.69;73.51
28000;BME280;15328;50.860;10.562;2023-01-30T14:30:54;96072.91;;;2.82;70.56
28000;BME280;15328;50.860;10.562;2023-01-30T14:46:04;96072.81;;;2.75;67.87
28000;BME280;15328;50.860;10.562;2023-01-30T14:51:30;96086.00;;;2.67;68.19
28000;BME280;15328;50.860;10.562;2023-01-30T15:07:09;96100.81;;;2.83;67.36
28000;BME280;15328;50.860;10.562;2023-01-30T15:17:57;96139.44;;;2.97;67.29
28000;BME280;15328;50.860;10.562;2023-01-30T15:23:14;96163.31;;;3.10;67.73
28000;BME280;15328;50.860;10.562;2023-01-30T15:34:18;96176.28;;;2.89;68.34
28000;BME280;15328;50.860;10.562;2023-01-30T15:39:24;96176.81;;;3.07;67.88
28000;BME280;15328;50.860;10.562;2023-01-30T15:54:49;96189.59;;;3.10;67.69
28000;BME280;15328;50.860;10.562;2023-01-30T15:59:52;96224.88;;;2.93;68.33
28000;BME280;15328;50.860;10.562;2023-01-30T16:05:05;96234.22;;;2.96;68.38
28000;BME280;15328;50.860;10.562;2023-01-30T16:10:17;96235.91;;;2.89;69.10
28000;BME280;15328;50.860;10.562;2023-01-30T16:15:33;96259.75;;;3.10;67.72
28000;BME280;15328;50.860;10.562;2023-01-30T16:20:48;96282.94;;;3.29;66.77
28000;BME280;15328;50.860;10.562;2023-01-30T16:25:51;96318.13;;;2.97;66.27
28000;BME280;15328;50.860;10.562;2023-01-30T16:31:04;96327.84;;;3.20;66.60
28000;BME280;15328;50.860;10.562;2023-01-30T16:52:02;96375.47;;;3.25;64.42
28000;BME280;15328;50.860;10.562;2023-01-30T16:57:03;96386.13;;;3.31;65.04
28000;BME280;15328;50.860;10.562;2023-01-30T17:02:05;96381.78;;;3.16;65.80
28000;BME280;15328;50.860;10.562;2023-01-30T17:07:06;96388.38;;;3.12;66.49
28000;BME280;15328;50.860;10.562;2023-01-30T17:17:25;96400.03;;;2.70;69.29
28000;BME280;15328;50.860;10.562;2023-01-30T17:22:26;96391.78;;;2.81;68.47
28000;BME280;15328;50.860;10.562;2023-01-30T17:27:28;96387.25;;;2.67;68.14
28000;BME280;15328;50.860;10.562;2023-01-30T17:32:29;96381.38;;;2.57;67.24
28000;BME280;15328;50.860;10.562;2023-01-30T17:37:29;96382.06;;;2.42;67.58
28000;BME280;15328;50.860;10.562;2023-01-30T17:42:30;96395.94;;;2.67;67.11
28000;BME280;15328;50.860;10.562;2023-01-30T17:47:30;96403.09;;;2.34;67.59
28000;BME280;15328;50.860;10.562;2023-01-30T17:52:30;96402.41;;;2.40;68.41
28000;BME280;15328;50.860;10.562;2023-01-30T17:57:31;96421.91;;;2.62;67.53
28000;BME280;15328;50.860;10.562;2023-01-30T18:02:32;96419.22;;;2.70;68.30
28000;BME280;15328;50.860;10.562;2023-01-30T18:07:32;96451.28;;;2.66;68.97
28000;BME280;15328;50.860;10.562;2023-01-30T18:12:33;96444.34;;;2.73;68.98
28000;BME280;15328;50.860;10.562;2023-01-30T18:17:35;96438.44;;;2.71;69.22
28000;BME280;15328;50.860;10.562;2023-01-30T18:22:40;96459.72;;;2.92;68.35
28000;BME280;15328;50.860;10.562;2023-01-30T18:27:46;96474.22;;;2.80;69.06
28000;BME280;15328;50.860;10.562;2023-01-30T18:32:47;96473.06;;;2.83;69.18
28000;BME280;15328;50.860;10.562;2023-01-30T18:37:48;96466.03;;;2.67;69.55
28000;BME280;15328;50.860;10.562;2023-01-30T18:42:49;96456.06;;;2.38;70.56
28000;BME280;15328;50.860;10.562;2023-01-30T18:47:49;96459.66;;;2.61;69.97
28000;BME280;15328;50.860;10.562;2023-01-30T18:52:54;96473.91;;;2.67;70.14
28000;BME280;15328;50.860;10.562;2023-01-30T18:58:06;96494.78;;;2.44;71.79
28000;BME280;15328;50.860;10.562;2023-01-30T19:03:09;96489.00;;;2.81;70.40
28000;BME280;15328;50.860;10.562;2023-01-30T19:08:15;96492.78;;;2.70;70.37
28000;BME280;15328;50.860;10.562;2023-01-30T19:13:15;96503.63;;;2.84;69.46
28000;BME280;15328;50.860;10.562;2023-01-30T19:18:35;96502.44;;;3.02;69.10
28000;BME280;15328;50.860;10.562;2023-01-30T19:23:36;96495.03;;;3.06;69.08
28000;BME280;15328;50.860;10.562;2023-01-30T19:28:36;96523.31;;;2.88;69.93
28000;BME280;15328;50.860;10.562;2023-01-30T19:33:36;96540.22;;;2.93;69.73
28000;BME280;15328;50.860;10.562;2023-01-30T19:38:37;96527.44;;;2.74;70.39
28000;BME280;15328;50.860;10.562;2023-01-30T19:43:38;96537.28;;;2.80;70.01
28000;BME280;15328;50.860;10.562;2023-01-30T19:48:42;96541.38;;;2.91;70.09
28000;BME280;15328;50.860;10.562;2023-01-30T19:53:44;96534.81;;;2.70;70.45
28000;BME280;15328;50.860;10.562;2023-01-30T19:58:44;96545.00;;;2.65;70.66
28000;BME280;15328;50.860;10.562;2023-01-30T20:03:45;96569.31;;;2.84;70.07
28000;BME280;15328;50.860;10.562;2023-01-30T20:08:47;96570.75;;;2.94;70.25
28000;BME280;15328;50.860;10.562;2023-01-30T20:13:50;96568.44;;;2.99;70.64
28000;BME280;15328;50.860;10.562;2023-01-30T20:18:59;96578.00;;;2.68;71.79
28000;BME280;15328;50.860;10.562;2023-01-30T20:24:00;96607.88;;;2.91;71.13
28000;BME280;15328;50.860;10.562;2023-01-30T20:29:02;96582.63;;;2.74;71.23
28000;BME280;15328;50.860;10.562;2023-01-30T20:34:06;96583.94;;;2.78;69.99
28000;BME280;15328;50.860;10.562;2023-01-30T20:39:07;96577.53;;;2.64;71.29
28000;BME280;15328;50.860;10.562;2023-01-30T20:44:17;96597.22;;;2.60;70.03
28000;BME280;15328;50.860;10.562;2023-01-30T20:49:21;96610.53;;;2.59;71.79
28000;BME280;15328;50.860;10.562;2023-01-30T20:54:22;96622.00;;;2.66;72.23
28000;BME280;15328;50.860;10.562;2023-01-30T20:59:23;96628.09;;;2.83;71.36
28000;BME280;15328;50.860;10.562;2023-01-30T21:04:23;96639.41;;;2.99;70.15
28000;BME280;15328;50.860;10.562;2023-01-30T21:09:24;96641.03;;;3.00;69.70
28000;BME280;15328;50.860;10.562;2023-01-30T21:14:24;96643.38;;;3.03;68.83
28000;BME280;15328;50.860;10.562;2023-01-30T21:19:24;96635.31;;;2.89;68.84
28000;BME280;15328;50.860;10.562;2023-01-30T21:24:27;96649.28;;;2.89;68.59
28000;BME280;15328;50.860;10.562;2023-01-30T21:29:28;96638.59;;;2.91;67.76
28000;BME280;15328;50.860;10.562;2023-01-30T21:34:28;96668.00;;;2.86;67.35
28000;BME280;15328;50.860;10.562;2023-01-30T21:39:28;96679.34;;;2.78;67.77
28000;BME280;15328;50.860;10.562;2023-01-30T21:44:47;96670.97;;;2.83;67.52
28000;BME280;15328;50.860;10.562;2023-01-30T21:49:52;96690.03;;;3.01;66.80
28000;BME280;15328;50.860;10.562;2023-01-30T21:54:52;96696.25;;;3.00;66.99
28000;BME280;15328;50.860;10.562;2023-01-30T21:59:53;96703.81;;;2.95;67.28
28000;BME280;15328;50.860;10.562;2023-01-30T22:04:53;96706.75;;;2.92;68.12
28000;BME280;15328;50.860;10.562;2023-01-30T22:09:54;96713.81;;;2.84;68.95
28000;BME280;15328;50.860;10.562;2023-01-30T22:14:54;96719.53;;;2.71;70.18
28000;BME280;15328;50.860;10.562;2023-01-30T22:19:55;96730.91;;;2.79;69.72
28000;BME280;15328;50.860;10.562;2023-01-30T22:24:55;96738.78;;;2.88;69.48
28000;BME280;15328;50.860;10.562;2023-01-30T22:29:55;96752.75;;;2.88;69.71
28000;BME280;15328;50.860;10.562;2023-01-30T22:34:56;96738.78;;;2.88;70.27
28000;BME280;15328;50.860;10.562;2023-01-30T22:39:56;96758.28;;;2.69;71.10
28000;BME280;15328;50.860;10.562;2023-01-30T22:44:57;96771.72;;;2.50;71.27
28000;BME280;15328;50.860;10.562;2023-01-30T22:49:57;96776.88;;;2.75;70.82
28000;BME280;15328;50.860;10.562;2023-01-30T22:54:57;96775.72;;;2.78;70.32
28000;BME280;15328;50.860;10.562;2023-01-30T22:59:57;96764.03;;;2.72;70.13
28000;BME280;15328;50.860;10.562;2023-01-30T23:04:58;96789.19;;;2.75;69.78
28000;BME280;15328;50.860;10.562;2023-01-30T23:09:58;96774.59;;;2.81;69.14
28000;BME280;15328;50.860;10.562;2023-01-30T23:14:59;96802.09;;;2.60;70.10
28000;BME280;15328;50.860;10.562;2023-01-30T23:19:59;96788.66;;;2.63;69.31
28000;BME280;15328;50.860;10.562;2023-01-30T23:24:59;96789.72;;;2.44;69.42
28000;BME280;15328;50.860;10.562;2023-01-30T23:30:00;96793.09;;;2.21;69.64
28000;BME280;15328;50.860;10.562;2023-01-30T23:35:00;96780.34;;;2.34;68.33
28000;BME280;15328;50.860;10.562;2023-01-30T23:40:00;96792.06;;;2.56;67.54
28000;BME280;15328;50.860;10.562;2023-01-30T23:45:01;96788.47;;;2.57;68.25
28000;BME280;15328;50.860;10.562;2023-01-30T23:50:01;96775.84;;;2.68;67.57
28000;BME280;15328;50.860;10.562;2023-01-30T23:55:05;96779.34;;;2.77;67.69
